KENL/ENL METAR and TAF weather

Enter ICAO airport designator
Station Type Date Time Source
KENL METAR 2022/07/01 02:35 UTC NOAA

KENL 010235Z AUTO 17005KT 10SM CLR 26/20 A3001 RMK AO2 T02570203


Station Type Date Time Source
KENL Decoded METAR 2022/07/01 02:35 UTC NOAA

Centralia, Centralia Municipal Airport, IL, United States (KENL) 38-30-53N 089-05-32W
Jun 30, 2022 - 10:35 PM EDT / 2022.07.01 0235 UTC
Wind: from the S (170 degrees) at 6 MPH (5 KT):0
Visibility: 10 mile(s):0
Sky conditions: clear
Temperature: 78.3 F (25.7 C)
Dew Point: 68.5 F (20.3 C)
Relative Humidity: 72%
Pressure (altimeter): 30.01 in. Hg (1016 hPa)
ob: KENL 010235Z AUTO 17005KT 10SM CLR 26/20 A3001 RMK AO2 T02570203
cycle: 2

Station Type Date Time Source
KENL TAF UTC NOAA

Error!

Example: see airport list